sensor_id;sensor_type;location;lat;lon;timestamp;P1;durP1;ratioP1;P2;durP2;ratioP2
12556;SDS011;6344;49.932;8.308;2023-02-25T00:01:28;6.13;;;5.20;;
12556;SDS011;6344;49.932;8.308;2023-02-25T00:07:20;8.57;;;5.80;;
12556;SDS011;6344;49.932;8.308;2023-02-25T00:09:52;10.00;;;6.00;;
12556;SDS011;6344;49.932;8.308;2023-02-25T00:12:19;9.13;;;6.43;;
12556;SDS011;6344;49.932;8.308;2023-02-25T00:14:45;7.27;;;5.20;;
12556;SDS011;6344;49.932;8.308;2023-02-25T00:17:12;11.33;;;7.07;;
12556;SDS011;6344;49.932;8.308;2023-02-25T00:19:39;6.97;;;6.27;;
12556;SDS011;6344;49.932;8.308;2023-02-25T00:22:05;8.80;;;6.83;;
12556;SDS011;6344;49.932;8.308;2023-02-25T00:24:33;6.07;;;5.47;;
12556;SDS011;6344;49.932;8.308;2023-02-25T00:27:00;6.93;;;6.00;;
12556;SDS011;6344;49.932;8.308;2023-02-25T00:29:27;11.00;;;6.97;;
12556;SDS011;6344;49.932;8.308;2023-02-25T00:31:54;8.10;;;6.27;;
12556;SDS011;6344;49.932;8.308;2023-02-25T00:34:20;9.50;;;6.40;;
12556;SDS011;6344;49.932;8.308;2023-02-25T00:36:47;8.47;;;6.13;;
12556;SDS011;6344;49.932;8.308;2023-02-25T00:39:14;6.87;;;6.00;;
12556;SDS011;6344;49.932;8.308;2023-02-25T00:41:42;14.13;;;7.20;;
12556;SDS011;6344;49.932;8.308;2023-02-25T00:44:09;9.00;;;6.40;;
12556;SDS011;6344;49.932;8.308;2023-02-25T00:46:37;12.13;;;6.20;;
12556;SDS011;6344;49.932;8.308;2023-02-25T00:49:03;8.20;;;5.50;;
12556;SDS011;6344;49.932;8.308;2023-02-25T00:51:30;9.27;;;6.50;;
12556;SDS011;6344;49.932;8.308;2023-02-25T00:53:58;8.93;;;6.73;;
12556;SDS011;6344;49.932;8.308;2023-02-25T00:56:25;9.43;;;6.43;;
12556;SDS011;6344;49.932;8.308;2023-02-25T00:58:53;6.33;;;4.93;;
12556;SDS011;6344;49.932;8.308;2023-02-25T01:01:20;13.10;;;6.97;;
12556;SDS011;6344;49.932;8.308;2023-02-25T01:03:49;15.60;;;7.70;;
12556;SDS011;6344;49.932;8.308;2023-02-25T01:06:17;7.87;;;6.70;;
12556;SDS011;6344;49.932;8.308;2023-02-25T01:08:44;7.43;;;6.20;;
12556;SDS011;6344;49.932;8.308;2023-02-25T01:11:12;6.00;;;5.43;;
12556;SDS011;6344;49.932;8.308;2023-02-25T01:13:40;12.53;;;7.10;;
12556;SDS011;6344;49.932;8.308;2023-02-25T01:16:12;7.80;;;6.10;;
12556;SDS011;6344;49.932;8.308;2023-02-25T01:18:40;10.30;;;6.00;;
12556;SDS011;6344;49.932;8.308;2023-02-25T01:21:13;10.20;;;6.07;;
12556;SDS011;6344;49.932;8.308;2023-02-25T01:23:41;7.13;;;3.33;;
12556;SDS011;6344;49.932;8.308;2023-02-25T01:26:09;3.57;;;2.80;;
12556;SDS011;6344;49.932;8.308;2023-02-25T01:28:35;8.00;;;3.17;;
12556;SDS011;6344;49.932;8.308;2023-02-25T01:31:02;4.53;;;2.60;;
12556;SDS011;6344;49.932;8.308;2023-02-25T01:33:33;6.37;;;4.10;;
12556;SDS011;6344;49.932;8.308;2023-02-25T01:36:02;4.43;;;3.30;;
12556;SDS011;6344;49.932;8.308;2023-02-25T01:38:30;3.87;;;3.20;;
12556;SDS011;6344;49.932;8.308;2023-02-25T01:40:57;10.37;;;4.47;;
12556;SDS011;6344;49.932;8.308;2023-02-25T01:43:24;8.33;;;4.13;;
12556;SDS011;6344;49.932;8.308;2023-02-25T01:45:53;6.73;;;4.77;;
12556;SDS011;6344;49.932;8.308;2023-02-25T01:48:21;8.30;;;4.40;;
12556;SDS011;6344;49.932;8.308;2023-02-25T01:50:51;9.40;;;5.50;;
12556;SDS011;6344;49.932;8.308;2023-02-25T01:53:22;9.67;;;4.27;;
12556;SDS011;6344;49.932;8.308;2023-02-25T01:55:51;3.93;;;2.37;;
12556;SDS011;6344;49.932;8.308;2023-02-25T01:58:19;4.13;;;2.87;;
12556;SDS011;6344;49.932;8.308;2023-02-25T02:00:46;6.83;;;3.83;;
12556;SDS011;6344;49.932;8.308;2023-02-25T02:03:13;5.10;;;3.13;;
12556;SDS011;6344;49.932;8.308;2023-02-25T02:05:53;7.27;;;3.80;;
12556;SDS011;6344;49.932;8.308;2023-02-25T02:08:32;4.73;;;3.80;;
12556;SDS011;6344;49.932;8.308;2023-02-25T02:11:01;8.80;;;2.57;;
12556;SDS011;6344;49.932;8.308;2023-02-25T02:13:29;3.00;;;2.50;;
12556;SDS011;6344;49.932;8.308;2023-02-25T02:16:00;6.70;;;4.10;;
12556;SDS011;6344;49.932;8.308;2023-02-25T02:18:37;3.10;;;2.70;;
12556;SDS011;6344;49.932;8.308;2023-02-25T02:21:14;5.70;;;2.47;;
12556;SDS011;6344;49.932;8.308;2023-02-25T02:26:58;6.20;;;4.57;;
12556;SDS011;6344;49.932;8.308;2023-02-25T02:29:32;4.00;;;2.53;;
12556;SDS011;6344;49.932;8.308;2023-02-25T02:32:31;11.60;;;4.93;;
12556;SDS011;6344;49.932;8.308;2023-02-25T02:35:03;11.27;;;4.13;;
12556;SDS011;6344;49.932;8.308;2023-02-25T02:37:38;8.70;;;3.97;;
12556;SDS011;6344;49.932;8.308;2023-02-25T02:40:14;6.43;;;3.97;;
12556;SDS011;6344;49.932;8.308;2023-02-25T02:42:50;8.70;;;5.13;;
12556;SDS011;6344;49.932;8.308;2023-02-25T02:45:24;8.60;;;4.17;;
12556;SDS011;6344;49.932;8.308;2023-02-25T02:48:01;7.03;;;3.00;;
12556;SDS011;6344;49.932;8.308;2023-02-25T02:50:31;8.10;;;3.20;;
12556;SDS011;6344;49.932;8.308;2023-02-25T02:53:02;4.53;;;3.67;;
12556;SDS011;6344;49.932;8.308;2023-02-25T02:55:33;7.53;;;3.43;;
12556;SDS011;6344;49.932;8.308;2023-02-25T02:58:03;8.33;;;3.80;;
12556;SDS011;6344;49.932;8.308;2023-02-25T03:00:35;12.20;;;4.30;;
12556;SDS011;6344;49.932;8.308;2023-02-25T03:03:07;11.40;;;4.63;;
12556;SDS011;6344;49.932;8.308;2023-02-25T03:05:37;3.93;;;2.60;;
12556;SDS011;6344;49.932;8.308;2023-02-25T03:08:07;10.07;;;5.57;;
12556;SDS011;6344;49.932;8.308;2023-02-25T03:10:35;6.47;;;4.33;;
12556;SDS011;6344;49.932;8.308;2023-02-25T03:13:02;5.63;;;3.50;;
12556;SDS011;6344;49.932;8.308;2023-02-25T03:15:29;8.63;;;4.00;;
12556;SDS011;6344;49.932;8.308;2023-02-25T03:17:58;10.37;;;3.97;;
12556;SDS011;6344;49.932;8.308;2023-02-25T03:20:31;11.50;;;4.97;;
12556;SDS011;6344;49.932;8.308;2023-02-25T03:23:03;8.90;;;4.60;;
12556;SDS011;6344;49.932;8.308;2023-02-25T03:25:35;5.93;;;3.27;;
12556;SDS011;6344;49.932;8.308;2023-02-25T03:28:15;9.97;;;5.70;;
12556;SDS011;6344;49.932;8.308;2023-02-25T03:30:49;11.97;;;4.63;;
12556;SDS011;6344;49.932;8.308;2023-02-25T03:33:25;7.67;;;4.17;;
12556;SDS011;6344;49.932;8.308;2023-02-25T03:35:57;8.77;;;4.83;;
12556;SDS011;6344;49.932;8.308;2023-02-25T03:38:27;12.83;;;4.17;;
12556;SDS011;6344;49.932;8.308;2023-02-25T03:40:56;13.90;;;4.80;;
12556;SDS011;6344;49.932;8.308;2023-02-25T03:43:26;10.53;;;5.63;;
12556;SDS011;6344;49.932;8.308;2023-02-25T03:45:57;7.00;;;3.73;;
12556;SDS011;6344;49.932;8.308;2023-02-25T03:48:27;6.87;;;3.30;;
12556;SDS011;6344;49.932;8.308;2023-02-25T03:50:55;11.77;;;2.97;;
12556;SDS011;6344;49.932;8.308;2023-02-25T03:53:27;4.97;;;4.50;;
12556;SDS011;6344;49.932;8.308;2023-02-25T03:55:56;8.37;;;4.40;;
12556;SDS011;6344;49.932;8.308;2023-02-25T03:58:24;11.17;;;4.13;;
12556;SDS011;6344;49.932;8.308;2023-02-25T04:00:51;10.60;;;5.03;;
12556;SDS011;6344;49.932;8.308;2023-02-25T04:03:22;9.67;;;3.83;;
12556;SDS011;6344;49.932;8.308;2023-02-25T04:05:49;6.40;;;4.57;;
12556;SDS011;6344;49.932;8.308;2023-02-25T04:08:17;8.20;;;4.70;;
12556;SDS011;6344;49.932;8.308;2023-02-25T04:10:44;4.27;;;2.37;;
12556;SDS011;6344;49.932;8.308;2023-02-25T04:13:12;6.23;;;3.47;;
12556;SDS011;6344;49.932;8.308;2023-02-25T04:15:40;9.27;;;4.33;;
12556;SDS011;6344;49.932;8.308;2023-02-25T04:18:07;6.43;;;4.40;;
12556;SDS011;6344;49.932;8.308;2023-02-25T04:20:34;12.80;;;3.50;;
12556;SDS011;6344;49.932;8.308;2023-02-25T04:23:01;3.87;;;2.40;;
12556;SDS011;6344;49.932;8.308;2023-02-25T04:25:29;6.40;;;3.90;;
12556;SDS011;6344;49.932;8.308;2023-02-25T04:27:55;6.63;;;3.77;;
12556;SDS011;6344;49.932;8.308;2023-02-25T04:30:22;5.90;;;3.87;;
12556;SDS011;6344;49.932;8.308;2023-02-25T04:32:49;5.23;;;2.90;;
12556;SDS011;6344;49.932;8.308;2023-02-25T04:35:16;7.53;;;3.00;;
12556;SDS011;6344;49.932;8.308;2023-02-25T04:37:43;17.83;;;3.50;;
12556;SDS011;6344;49.932;8.308;2023-02-25T04:40:11;6.20;;;3.60;;
12556;SDS011;6344;49.932;8.308;2023-02-25T04:42:41;4.90;;;2.80;;
12556;SDS011;6344;49.932;8.308;2023-02-25T04:45:08;8.70;;;3.73;;
12556;SDS011;6344;49.932;8.308;2023-02-25T04:47:36;10.13;;;2.50;;
12556;SDS011;6344;49.932;8.308;2023-02-25T04:50:04;4.67;;;3.53;;
12556;SDS011;6344;49.932;8.308;2023-02-25T04:52:32;2.47;;;2.27;;
12556;SDS011;6344;49.932;8.308;2023-02-25T04:54:58;6.57;;;3.10;;
12556;SDS011;6344;49.932;8.308;2023-02-25T04:57:25;12.30;;;3.47;;
12556;SDS011;6344;49.932;8.308;2023-02-25T04:59:54;13.13;;;3.47;;
12556;SDS011;6344;49.932;8.308;2023-02-25T05:02:20;10.20;;;3.40;;
12556;SDS011;6344;49.932;8.308;2023-02-25T05:04:47;6.10;;;3.20;;
12556;SDS011;6344;49.932;8.308;2023-02-25T05:07:13;5.50;;;3.47;;
12556;SDS011;6344;49.932;8.308;2023-02-25T05:09:40;5.83;;;2.57;;
12556;SDS011;6344;49.932;8.308;2023-02-25T05:12:07;4.80;;;3.13;;
12556;SDS011;6344;49.932;8.308;2023-02-25T05:14:35;11.47;;;3.93;;
12556;SDS011;6344;49.932;8.308;2023-02-25T05:17:03;9.17;;;3.93;;
12556;SDS011;6344;49.932;8.308;2023-02-25T05:19:30;13.20;;;3.90;;
12556;SDS011;6344;49.932;8.308;2023-02-25T05:21:56;5.80;;;3.60;;
12556;SDS011;6344;49.932;8.308;2023-02-25T05:24:23;6.47;;;3.40;;
12556;SDS011;6344;49.932;8.308;2023-02-25T05:26:50;7.67;;;3.83;;
12556;SDS011;6344;49.932;8.308;2023-02-25T05:29:17;10.13;;;3.83;;
12556;SDS011;6344;49.932;8.308;2023-02-25T05:31:43;11.40;;;4.23;;
12556;SDS011;6344;49.932;8.308;2023-02-25T05:34:11;9.03;;;3.60;;
12556;SDS011;6344;49.932;8.308;2023-02-25T05:36:38;2.30;;;1.83;;
12556;SDS011;6344;49.932;8.308;2023-02-25T05:39:05;3.80;;;2.80;;
12556;SDS011;6344;49.932;8.308;2023-02-25T05:41:32;10.20;;;3.20;;
12556;SDS011;6344;49.932;8.308;2023-02-25T05:43:58;5.97;;;3.20;;
12556;SDS011;6344;49.932;8.308;2023-02-25T05:46:25;5.33;;;3.53;;
12556;SDS011;6344;49.932;8.308;2023-02-25T05:48:52;9.20;;;3.37;;
12556;SDS011;6344;49.932;8.308;2023-02-25T05:51:20;7.93;;;3.30;;
12556;SDS011;6344;49.932;8.308;2023-02-25T05:53:47;8.20;;;3.50;;
12556;SDS011;6344;49.932;8.308;2023-02-25T05:56:15;6.90;;;3.33;;
12556;SDS011;6344;49.932;8.308;2023-02-25T05:58:43;4.10;;;2.60;;
12556;SDS011;6344;49.932;8.308;2023-02-25T06:01:11;12.50;;;3.90;;
12556;SDS011;6344;49.932;8.308;2023-02-25T06:03:41;10.30;;;3.23;;
12556;SDS011;6344;49.932;8.308;2023-02-25T06:06:09;11.07;;;4.07;;
12556;SDS011;6344;49.932;8.308;2023-02-25T06:08:39;16.43;;;5.27;;
12556;SDS011;6344;49.932;8.308;2023-02-25T06:11:08;7.50;;;4.17;;
12556;SDS011;6344;49.932;8.308;2023-02-25T06:13:38;10.57;;;5.30;;
12556;SDS011;6344;49.932;8.308;2023-02-25T06:16:05;5.63;;;3.40;;
12556;SDS011;6344;49.932;8.308;2023-02-25T06:18:32;9.37;;;4.27;;
12556;SDS011;6344;49.932;8.308;2023-02-25T06:21:01;8.10;;;4.50;;
12556;SDS011;6344;49.932;8.308;2023-02-25T06:23:29;6.23;;;3.57;;
12556;SDS011;6344;49.932;8.308;2023-02-25T06:25:57;10.50;;;4.20;;
12556;SDS011;6344;49.932;8.308;2023-02-25T06:28:24;10.07;;;4.13;;
12556;SDS011;6344;49.932;8.308;2023-02-25T06:30:51;12.77;;;4.60;;
12556;SDS011;6344;49.932;8.308;2023-02-25T06:33:17;14.50;;;4.60;;
12556;SDS011;6344;49.932;8.308;2023-02-25T06:35:44;13.30;;;4.87;;
12556;SDS011;6344;49.932;8.308;2023-02-25T06:38:15;14.60;;;4.43;;
12556;SDS011;6344;49.932;8.308;2023-02-25T06:40:41;6.57;;;4.43;;
12556;SDS011;6344;49.932;8.308;2023-02-25T06:43:09;6.60;;;4.40;;
12556;SDS011;6344;49.932;8.308;2023-02-25T06:45:36;10.37;;;4.07;;
12556;SDS011;6344;49.932;8.308;2023-02-25T06:48:03;10.73;;;4.67;;
12556;SDS011;6344;49.932;8.308;2023-02-25T06:50:30;11.67;;;4.60;;
12556;SDS011;6344;49.932;8.308;2023-02-25T06:52:57;10.90;;;5.20;;
12556;SDS011;6344;49.932;8.308;2023-02-25T06:55:24;10.37;;;4.57;;
12556;SDS011;6344;49.932;8.308;2023-02-25T06:57:51;9.80;;;3.80;;
12556;SDS011;6344;49.932;8.308;2023-02-25T07:00:20;15.33;;;5.33;;
12556;SDS011;6344;49.932;8.308;2023-02-25T07:02:47;13.80;;;4.50;;
12556;SDS011;6344;49.932;8.308;2023-02-25T07:05:14;11.37;;;4.17;;
12556;SDS011;6344;49.932;8.308;2023-02-25T07:07:40;8.60;;;3.57;;
12556;SDS011;6344;49.932;8.308;2023-02-25T07:10:09;7.00;;;3.90;;
12556;SDS011;6344;49.932;8.308;2023-02-25T07:12:36;6.23;;;4.00;;
12556;SDS011;6344;49.932;8.308;2023-02-25T07:15:03;7.97;;;3.10;;
12556;SDS011;6344;49.932;8.308;2023-02-25T07:17:32;11.13;;;4.07;;
12556;SDS011;6344;49.932;8.308;2023-02-25T07:19:59;12.10;;;4.60;;
12556;SDS011;6344;49.932;8.308;2023-02-25T07:22:25;7.87;;;4.93;;
12556;SDS011;6344;49.932;8.308;2023-02-25T07:24:52;8.30;;;5.47;;
12556;SDS011;6344;49.932;8.308;2023-02-25T07:27:18;13.63;;;4.20;;
12556;SDS011;6344;49.932;8.308;2023-02-25T07:29:45;10.43;;;4.60;;
12556;SDS011;6344;49.932;8.308;2023-02-25T07:32:12;11.00;;;5.23;;
12556;SDS011;6344;49.932;8.308;2023-02-25T07:34:40;7.33;;;4.13;;
12556;SDS011;6344;49.932;8.308;2023-02-25T07:37:07;9.80;;;4.07;;
12556;SDS011;6344;49.932;8.308;2023-02-25T07:39:33;15.73;;;6.43;;
12556;SDS011;6344;49.932;8.308;2023-02-25T07:42:00;6.93;;;5.37;;
12556;SDS011;6344;49.932;8.308;2023-02-25T07:44:27;13.80;;;11.00;;
12556;SDS011;6344;49.932;8.308;2023-02-25T07:46:53;12.13;;;9.73;;
12556;SDS011;6344;49.932;8.308;2023-02-25T07:49:20;14.70;;;10.00;;
12556;SDS011;6344;49.932;8.308;2023-02-25T07:51:48;10.50;;;5.67;;
12556;SDS011;6344;49.932;8.308;2023-02-25T07:54:15;8.70;;;6.40;;
12556;SDS011;6344;49.932;8.308;2023-02-25T07:56:45;6.57;;;5.27;;
12556;SDS011;6344;49.932;8.308;2023-02-25T07:59:15;8.07;;;5.70;;
12556;SDS011;6344;49.932;8.308;2023-02-25T08:01:42;7.67;;;4.00;;
12556;SDS011;6344;49.932;8.308;2023-02-25T08:04:08;7.70;;;4.57;;
12556;SDS011;6344;49.932;8.308;2023-02-25T08:06:36;8.80;;;5.13;;
12556;SDS011;6344;49.932;8.308;2023-02-25T08:09:06;8.07;;;3.83;;
12556;SDS011;6344;49.932;8.308;2023-02-25T08:11:35;5.33;;;3.87;;
12556;SDS011;6344;49.932;8.308;2023-02-25T08:14:02;5.37;;;3.40;;
12556;SDS011;6344;49.932;8.308;2023-02-25T08:16:29;5.27;;;2.90;;
12556;SDS011;6344;49.932;8.308;2023-02-25T08:18:57;7.90;;;5.47;;
12556;SDS011;6344;49.932;8.308;2023-02-25T08:21:24;15.30;;;4.87;;
12556;SDS011;6344;49.932;8.308;2023-02-25T08:23:51;10.03;;;5.07;;
12556;SDS011;6344;49.932;8.308;2023-02-25T08:26:20;4.40;;;3.60;;
12556;SDS011;6344;49.932;8.308;2023-02-25T08:28:47;6.33;;;4.07;;
12556;SDS011;6344;49.932;8.308;2023-02-25T08:31:15;5.33;;;4.13;;
12556;SDS011;6344;49.932;8.308;2023-02-25T08:33:43;5.17;;;3.93;;
12556;SDS011;6344;49.932;8.308;2023-02-25T08:36:14;6.63;;;4.90;;
12556;SDS011;6344;49.932;8.308;2023-02-25T08:38:44;7.50;;;3.63;;
12556;SDS011;6344;49.932;8.308;2023-02-25T08:41:11;25.57;;;7.50;;
12556;SDS011;6344;49.932;8.308;2023-02-25T08:43:39;6.93;;;4.10;;
12556;SDS011;6344;49.932;8.308;2023-02-25T08:46:06;3.90;;;3.37;;
12556;SDS011;6344;49.932;8.308;2023-02-25T08:48:34;5.67;;;3.80;;
12556;SDS011;6344;49.932;8.308;2023-02-25T08:51:01;3.63;;;3.03;;
12556;SDS011;6344;49.932;8.308;2023-02-25T08:53:29;7.03;;;3.00;;
12556;SDS011;6344;49.932;8.308;2023-02-25T08:55:56;7.97;;;4.00;;
12556;SDS011;6344;49.932;8.308;2023-02-25T08:58:27;7.40;;;3.77;;
12556;SDS011;6344;49.932;8.308;2023-02-25T09:00:55;4.47;;;3.70;;
12556;SDS011;6344;49.932;8.308;2023-02-25T09:03:21;6.40;;;3.73;;
12556;SDS011;6344;49.932;8.308;2023-02-25T09:05:49;4.50;;;2.93;;
12556;SDS011;6344;49.932;8.308;2023-02-25T09:08:17;6.33;;;3.53;;
12556;SDS011;6344;49.932;8.308;2023-02-25T09:10:43;9.03;;;3.40;;
12556;SDS011;6344;49.932;8.308;2023-02-25T09:13:10;9.90;;;4.90;;
12556;SDS011;6344;49.932;8.308;2023-02-25T09:15:37;4.97;;;2.60;;
12556;SDS011;6344;49.932;8.308;2023-02-25T09:18:05;9.70;;;5.70;;
12556;SDS011;6344;49.932;8.308;2023-02-25T09:20:32;7.20;;;5.93;;
12556;SDS011;6344;49.932;8.308;2023-02-25T09:22:59;5.63;;;3.50;;
12556;SDS011;6344;49.932;8.308;2023-02-25T09:25:26;5.27;;;3.60;;
12556;SDS011;6344;49.932;8.308;2023-02-25T09:27:53;8.00;;;4.83;;
12556;SDS011;6344;49.932;8.308;2023-02-25T09:30:20;5.00;;;3.63;;
12556;SDS011;6344;49.932;8.308;2023-02-25T09:32:46;7.63;;;5.47;;
12556;SDS011;6344;49.932;8.308;2023-02-25T09:35:14;10.47;;;4.80;;
12556;SDS011;6344;49.932;8.308;2023-02-25T09:37:41;9.10;;;4.50;;
12556;SDS011;6344;49.932;8.308;2023-02-25T09:40:09;5.47;;;4.27;;
12556;SDS011;6344;49.932;8.308;2023-02-25T09:42:43;8.33;;;4.10;;
12556;SDS011;6344;49.932;8.308;2023-02-25T09:45:18;5.43;;;3.23;;
12556;SDS011;6344;49.932;8.308;2023-02-25T09:47:49;5.53;;;4.87;;
12556;SDS011;6344;49.932;8.308;2023-02-25T09:50:22;3.80;;;3.10;;
12556;SDS011;6344;49.932;8.308;2023-02-25T09:52:57;3.37;;;3.07;;
12556;SDS011;6344;49.932;8.308;2023-02-25T09:55:33;5.93;;;3.30;;
12556;SDS011;6344;49.932;8.308;2023-02-25T09:58:03;5.23;;;3.03;;
12556;SDS011;6344;49.932;8.308;2023-02-25T10:00:34;6.17;;;4.03;;
12556;SDS011;6344;49.932;8.308;2023-02-25T10:03:05;6.83;;;4.60;;
12556;SDS011;6344;49.932;8.308;2023-02-25T10:05:42;7.50;;;3.87;;
12556;SDS011;6344;49.932;8.308;2023-02-25T10:08:14;7.63;;;3.70;;
12556;SDS011;6344;49.932;8.308;2023-02-25T10:10:48;5.17;;;3.77;;
12556;SDS011;6344;49.932;8.308;2023-02-25T10:13:24;7.10;;;4.80;;
12556;SDS011;6344;49.932;8.308;2023-02-25T10:16:01;5.63;;;3.27;;
12556;SDS011;6344;49.932;8.308;2023-02-25T10:18:46;5.03;;;3.13;;
12556;SDS011;6344;49.932;8.308;2023-02-25T10:21:29;5.63;;;3.60;;
12556;SDS011;6344;49.932;8.308;2023-02-25T10:24:15;4.83;;;4.20;;
12556;SDS011;6344;49.932;8.308;2023-02-25T10:26:51;4.63;;;3.47;;
12556;SDS011;6344;49.932;8.308;2023-02-25T10:29:24;6.30;;;3.83;;
12556;SDS011;6344;49.932;8.308;2023-02-25T10:31:54;4.30;;;2.80;;
12556;SDS011;6344;49.932;8.308;2023-02-25T10:34:25;5.23;;;4.10;;
12556;SDS011;6344;49.932;8.308;2023-02-25T10:36:56;5.90;;;3.20;;
12556;SDS011;6344;49.932;8.308;2023-02-25T10:39:25;8.90;;;3.50;;
12556;SDS011;6344;49.932;8.308;2023-02-25T10:41:53;4.17;;;3.10;;
12556;SDS011;6344;49.932;8.308;2023-02-25T10:44:20;8.40;;;4.27;;
12556;SDS011;6344;49.932;8.308;2023-02-25T10:46:49;3.20;;;2.90;;
12556;SDS011;6344;49.932;8.308;2023-02-25T10:49:19;2.77;;;1.67;;
12556;SDS011;6344;49.932;8.308;2023-02-25T10:51:58;5.37;;;3.00;;
12556;SDS011;6344;49.932;8.308;2023-02-25T10:54:27;6.57;;;2.60;;
12556;SDS011;6344;49.932;8.308;2023-02-25T10:56:55;4.23;;;2.53;;
12556;SDS011;6344;49.932;8.308;2023-02-25T10:59:26;6.53;;;3.43;;
12556;SDS011;6344;49.932;8.308;2023-02-25T11:01:55;7.10;;;2.90;;
12556;SDS011;6344;49.932;8.308;2023-02-25T11:04:27;3.80;;;3.17;;
12556;SDS011;6344;49.932;8.308;2023-02-25T11:06:58;2.70;;;1.73;;
12556;SDS011;6344;49.932;8.308;2023-02-25T11:09:29;3.53;;;3.00;;
12556;SDS011;6344;49.932;8.308;2023-02-25T11:12:08;2.23;;;2.00;;
12556;SDS011;6344;49.932;8.308;2023-02-25T11:14:37;5.20;;;3.40;;
12556;SDS011;6344;49.932;8.308;2023-02-25T11:17:05;4.30;;;3.53;;
12556;SDS011;6344;49.932;8.308;2023-02-25T11:19:37;4.53;;;1.93;;
12556;SDS011;6344;49.932;8.308;2023-02-25T11:22:08;4.50;;;2.20;;
12556;SDS011;6344;49.932;8.308;2023-02-25T11:24:41;4.70;;;2.70;;
12556;SDS011;6344;49.932;8.308;2023-02-25T11:27:19;3.10;;;1.90;;
12556;SDS011;6344;49.932;8.308;2023-02-25T11:29:50;4.20;;;2.43;;
12556;SDS011;6344;49.932;8.308;2023-02-25T11:32:17;4.53;;;3.10;;
12556;SDS011;6344;49.932;8.308;2023-02-25T11:34:47;3.73;;;2.07;;
12556;SDS011;6344;49.932;8.308;2023-02-25T11:37:25;4.10;;;1.93;;
12556;SDS011;6344;49.932;8.308;2023-02-25T11:40:00;3.10;;;2.67;;
12556;SDS011;6344;49.932;8.308;2023-02-25T11:42:42;2.33;;;2.07;;
12556;SDS011;6344;49.932;8.308;2023-02-25T11:45:15;4.70;;;2.80;;
12556;SDS011;6344;49.932;8.308;2023-02-25T11:47:42;7.37;;;2.20;;
12556;SDS011;6344;49.932;8.308;2023-02-25T11:50:17;1.60;;;1.47;;
12556;SDS011;6344;49.932;8.308;2023-02-25T11:52:51;2.50;;;2.00;;
12556;SDS011;6344;49.932;8.308;2023-02-25T11:55:32;4.63;;;2.10;;
12556;SDS011;6344;49.932;8.308;2023-02-25T11:58:09;3.33;;;2.03;;
12556;SDS011;6344;49.932;8.308;2023-02-25T12:00:44;4.03;;;1.63;;
12556;SDS011;6344;49.932;8.308;2023-02-25T12:03:27;2.07;;;1.87;;
12556;SDS011;6344;49.932;8.308;2023-02-25T12:06:20;5.13;;;1.60;;
12556;SDS011;6344;49.932;8.308;2023-02-25T12:09:09;2.40;;;1.80;;
12556;SDS011;6344;49.932;8.308;2023-02-25T12:12:01;2.90;;;2.30;;
12556;SDS011;6344;49.932;8.308;2023-02-25T12:20:48;4.33;;;1.67;;
12556;SDS011;6344;49.932;8.308;2023-02-25T12:26:40;3.10;;;1.07;;
12556;SDS011;6344;49.932;8.308;2023-02-25T12:35:29;1.10;;;0.80;;
12556;SDS011;6344;49.932;8.308;2023-02-25T12:38:21;1.17;;;0.90;;
12556;SDS011;6344;49.932;8.308;2023-02-25T12:41:16;2.90;;;0.93;;
12556;SDS011;6344;49.932;8.308;2023-02-25T12:43:54;1.20;;;1.10;;
12556;SDS011;6344;49.932;8.308;2023-02-25T12:46:41;1.60;;;1.33;;
12556;SDS011;6344;49.932;8.308;2023-02-25T12:49:23;1.10;;;1.00;;
12556;SDS011;6344;49.932;8.308;2023-02-25T12:52:14;1.20;;;0.80;;
12556;SDS011;6344;49.932;8.308;2023-02-25T12:55:03;1.50;;;1.17;;
12556;SDS011;6344;49.932;8.308;2023-02-25T12:57:45;1.10;;;0.90;;
12556;SDS011;6344;49.932;8.308;2023-02-25T13:00:23;1.07;;;0.90;;
12556;SDS011;6344;49.932;8.308;2023-02-25T13:03:06;1.30;;;0.90;;
12556;SDS011;6344;49.932;8.308;2023-02-25T13:05:54;2.33;;;1.10;;
12556;SDS011;6344;49.932;8.308;2023-02-25T13:11:26;2.00;;;1.30;;
12556;SDS011;6344;49.932;8.308;2023-02-25T13:14:08;1.50;;;1.30;;
12556;SDS011;6344;49.932;8.308;2023-02-25T13:16:54;3.10;;;1.20;;
12556;SDS011;6344;49.932;8.308;2023-02-25T13:19:48;2.17;;;1.37;;
12556;SDS011;6344;49.932;8.308;2023-02-25T13:22:31;3.13;;;2.27;;
12556;SDS011;6344;49.932;8.308;2023-02-25T13:25:12;3.53;;;3.20;;
12556;SDS011;6344;49.932;8.308;2023-02-25T13:27:54;2.83;;;2.20;;
12556;SDS011;6344;49.932;8.308;2023-02-25T13:30:32;3.03;;;1.40;;
12556;SDS011;6344;49.932;8.308;2023-02-25T13:33:23;4.80;;;2.17;;
12556;SDS011;6344;49.932;8.308;2023-02-25T13:36:06;2.27;;;1.70;;
12556;SDS011;6344;49.932;8.308;2023-02-25T13:38:42;1.70;;;1.40;;
12556;SDS011;6344;49.932;8.308;2023-02-25T13:41:28;1.70;;;1.27;;
12556;SDS011;6344;49.932;8.308;2023-02-25T13:44:07;2.03;;;1.60;;
12556;SDS011;6344;49.932;8.308;2023-02-25T13:50:00;1.50;;;1.30;;
12556;SDS011;6344;49.932;8.308;2023-02-25T13:52:45;3.77;;;1.57;;
12556;SDS011;6344;49.932;8.308;2023-02-25T13:55:35;1.10;;;0.90;;
12556;SDS011;6344;49.932;8.308;2023-02-25T13:58:17;1.57;;;1.10;;
12556;SDS011;6344;49.932;8.308;2023-02-25T14:01:05;2.07;;;1.33;;
12556;SDS011;6344;49.932;8.308;2023-02-25T14:03:47;3.10;;;1.90;;
12556;SDS011;6344;49.932;8.308;2023-02-25T14:06:46;2.57;;;1.77;;
12556;SDS011;6344;49.932;8.308;2023-02-25T14:09:36;2.23;;;2.03;;
12556;SDS011;6344;49.932;8.308;2023-02-25T14:12:13;1.87;;;1.77;;
12556;SDS011;6344;49.932;8.308;2023-02-25T14:14:57;2.60;;;1.70;;
12556;SDS011;6344;49.932;8.308;2023-02-25T14:17:42;2.07;;;1.67;;
12556;SDS011;6344;49.932;8.308;2023-02-25T14:20:20;4.30;;;1.80;;
12556;SDS011;6344;49.932;8.308;2023-02-25T14:22:59;5.43;;;2.30;;
12556;SDS011;6344;49.932;8.308;2023-02-25T14:25:40;2.90;;;2.50;;
12556;SDS011;6344;49.932;8.308;2023-02-25T14:28:21;1.50;;;1.40;;
12556;SDS011;6344;49.932;8.308;2023-02-25T14:31:00;2.33;;;1.33;;
12556;SDS011;6344;49.932;8.308;2023-02-25T14:33:41;1.57;;;1.47;;
12556;SDS011;6344;49.932;8.308;2023-02-25T14:36:33;2.33;;;1.73;;
12556;SDS011;6344;49.932;8.308;2023-02-25T14:39:35;2.70;;;1.60;;
12556;SDS011;6344;49.932;8.308;2023-02-25T14:42:15;1.50;;;1.40;;
12556;SDS011;6344;49.932;8.308;2023-02-25T14:44:54;3.13;;;1.97;;
12556;SDS011;6344;49.932;8.308;2023-02-25T14:47:25;1.90;;;1.70;;
12556;SDS011;6344;49.932;8.308;2023-02-25T14:49:57;2.37;;;1.60;;
12556;SDS011;6344;49.932;8.308;2023-02-25T14:55:47;1.77;;;1.30;;
12556;SDS011;6344;49.932;8.308;2023-02-25T14:58:53;1.63;;;1.00;;
12556;SDS011;6344;49.932;8.308;2023-02-25T15:01:36;3.90;;;2.60;;
12556;SDS011;6344;49.932;8.308;2023-02-25T15:04:21;1.27;;;1.17;;
12556;SDS011;6344;49.932;8.308;2023-02-25T15:07:04;1.30;;;0.97;;
12556;SDS011;6344;49.932;8.308;2023-02-25T15:09:37;1.43;;;1.33;;
12556;SDS011;6344;49.932;8.308;2023-02-25T15:12:34;2.03;;;1.37;;
12556;SDS011;6344;49.932;8.308;2023-02-25T15:15:29;2.63;;;1.07;;
12556;SDS011;6344;49.932;8.308;2023-02-25T15:24:01;2.40;;;1.30;;
12556;SDS011;6344;49.932;8.308;2023-02-25T15:26:38;1.37;;;1.00;;
12556;SDS011;6344;49.932;8.308;2023-02-25T15:29:17;1.57;;;1.47;;
12556;SDS011;6344;49.932;8.308;2023-02-25T15:34:36;2.13;;;1.30;;
12556;SDS011;6344;49.932;8.308;2023-02-25T15:37:23;2.07;;;1.77;;
12556;SDS011;6344;49.932;8.308;2023-02-25T15:39:59;2.67;;;1.77;;
12556;SDS011;6344;49.932;8.308;2023-02-25T15:42:49;2.50;;;1.40;;
12556;SDS011;6344;49.932;8.308;2023-02-25T15:45:34;2.10;;;1.37;;
12556;SDS011;6344;49.932;8.308;2023-02-25T15:50:57;1.97;;;1.77;;
12556;SDS011;6344;49.932;8.308;2023-02-25T15:53:35;8.13;;;2.67;;
12556;SDS011;6344;49.932;8.308;2023-02-25T15:59:39;5.37;;;1.90;;
12556;SDS011;6344;49.932;8.308;2023-02-25T16:05:04;1.50;;;1.10;;
12556;SDS011;6344;49.932;8.308;2023-02-25T16:14:16;4.60;;;1.20;;
12556;SDS011;6344;49.932;8.308;2023-02-25T16:16:46;2.70;;;1.63;;
12556;SDS011;6344;49.932;8.308;2023-02-25T16:19:16;2.70;;;1.97;;
12556;SDS011;6344;49.932;8.308;2023-02-25T16:21:47;1.90;;;1.70;;
12556;SDS011;6344;49.932;8.308;2023-02-25T16:24:17;4.70;;;1.10;;